Terminal Aerodrome Forecast
Issued by NWS

Home | Current Version | Previous Version | Text Only | Print | Product List | Glossary On
Versions: 1 2 3 4 5 6 7 8 9 10 11 12 13 14 15
050
FTUS45 KFGZ 230538
TAFPGA
TAF
KPGA 230538Z 2306/2406 20007KT P6SM -SHSN SCT050 OVC100
      TEMPO 2310/2313 5SM -SN OVC050
     FM231900 30008KT P6SM -SN SCT050 OVC070=

USA.gov is the U.S. government's official web portal to all federal, state and local government web resources and services.